Date,TemperatureHighF,TemperatureAvgF,TemperatureLowF,DewpointHighF,DewpointAvgF,DewpointLowF,HumidityHigh,HumidityAvg,HumidityLow,PressureMaxIn,PressureMinIn,WindSpeedMaxMPH,WindSpeedAvgMPH,GustSpeedMaxMPH,PrecipitationSumIn
2013-1-1,40.9,37.6,33.4,40.9,35.8,26.7,100,94,70,30.21,29.97,6,1,9,0.33
2013-1-2,39.6,33.9,31.9,39.6,30.7,27.8,100,88,79,30.20,29.99,4,1,10,0.04
2013-1-3,39.3,31.0,22.1,29.9,25.0,18.3,96,80,47,30.34,30.18,4,0,6,0.00
2013-1-4,35.3,26.7,18.0,23.5,19.5,14.3,87,75,61,30.45,30.34,9,2,13,0.00
2013-1-5,44.6,31.0,16.4,30.0,22.4,13.8,92,72,43,30.50,30.30,5,0,6,0.02
2013-1-6,37.3,34.7,32.7,34.9,32.6,28.2,99,92,74,30.32,30.14,7,4,11,0.02
2013-1-7,46.5,33.6,24.1,29.9,25.3,21.3,89,72,50,30.48,30.29,5,0,7,0.00
2013-1-8,53.5,33.0,19.4,30.4,23.8,16.9,93,73,30,30.49,30.38,4,0,7,0.00
2013-1-9,49.4,40.1,27.8,47.0,37.4,24.5,99,90,74,30.53,30.40,4,0,7,0.03
2013-1-10,60.7,48.5,38.2,49.1,43.8,38.2,100,85,59,30.53,30.31,5,1,8,0.00
2013-1-11,59.0,51.8,45.2,56.1,48.6,39.2,100,89,64,30.31,30.07,7,1,8,0.07
2013-1-12,68.1,56.7,47.0,62.0,55.2,46.8,100,95,78,30.16,30.01,7,1,10,0.06
2013-1-13,67.6,55.6,42.3,56.9,50.9,42.3,100,85,63,30.08,29.96,4,0,5,0.12
2013-1-14,56.7,48.1,38.5,56.0,47.2,37.5,99,97,94,30.25,30.01,5,1,8,1.06
2013-1-15,46.0,43.5,38.8,45.5,43.2,38.0,100,99,97,30.19,29.98,8,3,15,1.58
2013-1-16,52.9,46.2,42.6,52.3,45.8,42.0,100,99,94,30.06,29.92,6,2,7,0.56
2013-1-17,42.9,35.8,28.4,42.1,34.5,25.6,100,95,81,30.31,29.97,7,2,11,0.63
2013-1-18,34.6,26.5,16.5,26.3,22.3,14.6,94,84,69,30.57,30.31,5,1,8,0.29
2013-1-19,43.5,25.7,12.8,31.9,21.1,10.4,96,84,54,30.51,30.25,5,0,8,0.15
2013-1-20,45.2,33.7,21.4,32.8,27.5,19.6,97,79,60,30.25,30.14,11,4,14,0.00
2013-1-21,40.2,28.7,21.0,24.7,16.4,6.8,94,64,38,30.15,30.03,16,7,25,0.00
2013-1-22,25.4,20.1,15.4,8.2,0.0,-4.3,55,41,30,30.34,30.12,13,7,17,0.00
2013-1-23,34.6,23.5,12.9,21.8,10.3,0.4,73,57,45,30.42,30.14,11,4,16,0.00
2013-1-24,33.7,24.4,15.2,24.8,10.0,0.2,71,55,33,30.51,30.10,13,5,21,0.00
2013-1-25,30.6,23.3,17.2,30.4,17.2,5.1,99,79,52,30.47,30.15,6,3,9,0.00
2013-1-26,32.2,30.0,26.9,31.0,26.9,22.2,99,88,82,30.43,30.20,5,1,8,0.04
2013-1-27,40.2,29.8,18.9,28.8,23.8,17.2,94,79,61,30.53,30.42,8,2,10,0.14
2013-1-28,60.1,44.8,33.2,46.5,38.4,28.3,95,79,57,30.43,30.23,10,2,14,0.16
2013-1-29,66.8,51.9,41.6,53.2,47.0,41.3,100,85,52,30.25,29.93,7,1,9,0.03
2013-1-30,64.5,56.5,43.1,58.0,52.3,40.8,100,87,69,29.94,29.41,15,4,19,1.81
2013-1-31,43.2,31.8,27.0,40.7,23.3,17.8,93,71,56,30.00,29.43,19,11,23,0.05
2013-2-1,32.8,20.1,12.6,29.7,10.5,-0.9,96,67,50,30.43,29.92,16,7,26,0.00
2013-2-2,28.8,20.4,11.2,26.5,16.0,6.6,97,83,47,30.43,30.13,11,1,19,0.00
2013-2-3,32.4,28.7,25.1,30.9,27.3,17.9,98,94,74,30.17,29.96,11,5,14,0.13
2013-2-4,34.6,24.4,7.2,25.2,18.2,4.1,92,77,63,30.21,30.04,6,0,9,0.14
2013-2-5,42.1,35.5,29.5,36.2,30.7,25.0,95,83,73,30.05,29.98,8,2,13,0.03
2013-2-6,49.8,36.6,27.0,34.4,29.0,24.7,95,76,43,30.28,30.03,5,1,8,0.01
2013-2-7,47.3,38.4,28.1,37.5,31.8,25.3,90,78,64,30.30,30.02,8,2,11,0.00
2013-2-8,48.9,38.0,32.1,44.9,33.3,24.1,99,84,57,30.24,29.93,11,4,23,0.07
2013-2-9,47.9,33.7,24.8,24.2,20.9,17.0,84,62,30,30.38,30.24,7,2,10,0.00
2013-2-10,57.2,40.3,24.4,42.7,25.3,15.9,91,62,20,30.38,30.07,8,1,12,0.11
2013-2-11,52.9,49.4,40.9,49.9,44.6,32.9,98,84,71,30.08,29.96,12,4,16,0.05
2013-2-12,49.8,40.3,28.2,35.2,27.1,21.6,80,60,40,30.17,29.93,7,1,9,0.00
2013-2-13,44.2,39.1,34.1,42.9,36.0,29.5,96,89,76,29.93,29.62,13,3,21,0.31
2013-2-14,34.3,30.9,26.0,30.0,26.6,23.3,91,84,76,30.08,29.93,7,1,7,0.01
2013-2-15,52.2,34.3,23.2,37.9,29.5,21.7,96,84,48,30.13,29.99,13,2,21,0.11
2013-2-16,31.2,27.5,22.4,28.9,21.0,10.9,93,77,57,30.08,29.94,10,2,16,0.04
2013-2-17,30.6,22.0,14.9,15.1,10.1,5.8,91,62,37,30.32,30.04,14,7,20,0.00
2013-2-18,52.5,33.9,14.4,30.9,20.1,8.7,85,59,39,30.42,30.09,8,2,14,0.00
2013-2-19,45.4,39.2,30.9,39.5,26.7,13.9,95,64,34,30.09,29.87,18,7,26,0.14
2013-2-20,39.9,30.8,23.3,16.4,12.8,8.9,67,48,31,30.25,30.07,11,6,18,0.00
2013-2-21,48.9,33.6,18.0,30.3,17.4,11.6,80,54,28,30.31,30.15,2,0,3,0.05
2013-2-22,53.6,41.7,35.2,44.1,36.8,30.7,93,83,66,30.23,30.03,8,3,10,0.23
2013-2-23,55.7,42.9,35.6,46.0,39.3,34.2,97,88,63,30.07,29.83,7,1,10,0.03
2013-2-24,49.9,41.5,30.3,43.6,26.5,18.5,94,58,31,30.10,29.87,8,2,18,0.00
2013-2-25,49.4,35.1,23.6,29.7,24.4,19.2,86,67,43,30.14,30.03,9,3,12,0.00
2013-2-26,47.1,38.4,32.4,41.2,33.2,22.8,95,82,63,30.06,29.56,14,7,23,0.15
2013-2-27,41.9,37.2,33.5,36.0,32.7,31.0,94,84,69,29.82,29.66,15,7,21,0.04
2013-2-28,35.3,31.7,29.7,31.4,26.9,24.1,95,83,69,29.97,29.75,12,7,16,0.04
2013-3-1,37.3,32.5,29.7,32.0,28.4,25.5,96,85,70,29.97,29.92,6,2,10,0.05
2013-3-2,33.8,29.1,23.6,26.0,22.4,15.4,85,76,66,30.04,29.91,9,2,18,0.00
2013-3-3,29.8,24.4,21.3,20.1,16.6,13.1,85,72,60,30.12,30.02,9,4,13,0.00
2013-3-4,44.1,32.1,23.6,28.0,18.2,14.1,80,58,34,30.24,30.09,8,3,12,0.00
2013-3-5,44.9,37.9,30.7,44.4,34.0,24.8,98,86,71,30.10,29.61,17,3,21,1.00
2013-3-6,32.1,27.7,25.1,29.5,25.0,22.8,95,90,83,30.25,29.71,14,7,18,0.00
2013-3-7,32.7,29.9,27.5,26.0,23.9,21.5,89,78,69,30.38,30.24,6,2,9,0.01
2013-3-8,43.1,32.9,25.4,27.5,23.9,21.6,89,70,50,30.43,30.33,5,1,11,0.00
2013-3-9,65.6,40.7,21.1,32.8,26.2,18.9,94,64,20,30.39,30.23,6,0,8,0.00
2013-3-10,67.4,51.3,35.5,37.4,33.6,30.8,84,55,29,30.26,30.08,7,1,9,0.00
2013-3-11,56.0,52.4,48.2,49.1,43.2,31.6,99,73,46,30.10,29.78,11,3,17,0.60
2013-3-12,48.3,41.6,31.2,47.6,37.1,27.5,99,85,60,30.06,29.76,10,3,14,0.20
2013-3-13,37.6,31.7,26.1,31.7,23.5,14.9,95,72,55,30.29,30.04,14,5,22,0.03
2013-3-14,42.8,31.1,22.9,20.3,16.1,12.3,70,55,31,30.39,30.24,9,4,16,0.00
2013-3-15,56.0,39.5,23.3,36.4,27.9,17.4,85,65,46,30.28,29.94,11,3,15,0.00
2013-3-16,67.3,52.3,34.1,53.4,44.5,30.5,99,77,48,29.94,29.70,15,5,22,0.20
2013-3-17,55.1,49.3,41.8,50.8,46.7,38.8,99,91,81,30.01,29.86,10,3,15,0.09
2013-3-18,51.1,40.8,36.3,43.5,37.5,33.4,98,88,71,30.01,29.83,11,6,14,0.69
2013-3-19,52.5,43.0,36.3,43.6,25.0,4.8,99,56,20,30.10,29.84,15,7,25,0.05
2013-3-20,48.3,37.8,25.4,29.8,14.2,5.7,89,40,24,30.12,29.84,16,6,27,0.00
2013-3-21,31.6,24.8,19.5,23.3,11.5,7.7,74,57,43,30.07,29.86,12,5,17,0.00
2013-3-22,44.8,27.9,12.3,21.5,13.6,7.9,85,58,30,30.16,30.05,7,1,11,0.00
2013-3-23,49.1,39.0,32.5,35.9,28.6,19.6,89,67,56,30.09,29.89,2,0,5,0.00
2013-3-24,42.6,38.7,33.1,38.5,35.9,30.3,96,90,83,29.91,29.47,9,3,12,0.78
2013-3-25,36.2,31.1,28.5,34.0,27.7,24.0,97,88,75,29.93,29.51,18,10,30,0.14
2013-3-26,34.3,30.2,27.5,30.2,26.5,25.0,93,86,73,30.25,29.93,8,5,14,0.03
2013-3-27,37.0,31.6,28.4,27.7,22.1,18.1,94,68,53,30.34,30.24,9,4,13,0.02
2013-3-28,45.5,34.4,25.4,27.1,21.9,20.1,81,62,39,30.37,30.29,8,2,12,0.00
2013-3-29,52.6,35.9,19.7,35.2,25.2,17.2,93,69,31,30.39,30.26,10,3,15,0.00
2013-3-30,57.5,42.7,26.4,39.8,33.9,25.2,99,74,42,30.32,30.06,9,1,12,0.00
2013-3-31,57.5,48.3,41.6,50.9,45.8,37.1,99,91,71,30.05,29.83,13,3,18,0.37
2013-4-1,53.6,46.4,38.6,48.4,40.7,28.3,100,82,48,30.04,29.87,13,5,19,0.03
2013-4-2,49.9,40.0,30.0,28.6,19.3,9.7,69,46,25,30.21,30.04,10,3,14,0.00
2013-4-3,51.7,39.2,22.2,24.0,17.0,10.6,81,43,24,30.34,30.21,5,0,9,0.00
2013-4-4,40.1,35.6,33.2,33.8,24.8,14.2,97,69,38,30.31,30.02,9,2,12,0.74
2013-4-5,57.3,42.4,33.7,42.7,35.1,28.5,100,79,36,30.11,30.00,7,1,13,0.28
2013-4-6,67.3,44.9,28.7,39.7,31.7,25.4,97,68,26,30.24,30.10,3,0,6,0.01
2013-4-7,67.9,54.5,38.6,45.1,38.8,32.4,84,57,36,30.15,30.03,12,3,19,0.00
2013-4-8,74.7,56.4,38.3,51.4,45.3,37.0,96,70,41,30.13,29.99,10,2,13,0.00
2013-4-9,78.5,60.2,42.8,55.6,49.7,41.7,98,72,39,30.18,30.02,9,2,14,0.00
2013-4-10,80.7,63.5,47.7,59.5,52.6,46.3,98,72,31,30.09,29.88,9,2,13,0.00
2013-4-11,78.8,64.0,48.3,60.3,52.9,47.1,98,71,40,29.90,29.65,7,1,10,0.48
2013-4-12,62.3,56.6,49.2,60.6,50.4,34.2,99,82,52,29.88,29.53,13,5,18,0.62
2013-4-13,65.6,51.5,36.2,43.1,36.2,29.9,91,59,30,30.05,29.88,11,4,17,0.00
2013-4-14,72.1,54.1,34.4,46.9,37.9,32.3,94,60,30,30.11,29.97,5,1,13,0.01
2013-4-15,64.0,55.7,48.3,55.4,50.9,45.7,95,84,66,30.15,29.95,9,3,11,0.11
2013-4-16,78.3,61.0,46.0,60.9,52.2,45.3,100,76,39,30.27,30.11,7,1,9,0.00
2013-4-17,66.8,59.4,53.1,60.0,57.2,52.1,99,93,76,30.25,30.08,5,0,9,0.78
2013-4-18,74.9,63.5,50.5,61.6,55.0,50.2,100,77,47,30.09,29.85,9,1,14,0.01
2013-4-19,69.1,59.1,42.9,61.0,52.4,34.8,96,79,65,29.93,29.60,14,5,20,0.35
2013-4-20,55.7,44.6,32.4,34.7,28.5,23.2,76,55,31,30.32,29.94,12,4,14,0.00
2013-4-21,59.8,45.1,29.7,36.4,31.1,26.9,91,61,35,30.47,30.33,8,2,11,0.00
2013-4-22,61.6,48.8,36.9,40.4,34.3,27.4,84,60,33,30.42,30.21,8,3,12,0.00
2013-4-23,63.9,44.4,32.7,44.4,33.3,27.1,88,66,41,30.26,30.04,2,0,2,0.00
2013-4-24,72.8,54.1,40.1,57.3,47.0,38.5,96,80,48,30.16,29.92,20,3,30,0.15
2013-4-25,59.8,45.7,33.2,41.5,35.1,29.8,90,68,42,30.36,30.16,5,1,9,0.00
2013-4-26,64.8,49.3,30.0,44.1,34.5,26.7,95,62,24,30.46,30.32,3,0,9,0.00
2013-4-27,60.9,54.0,48.9,52.4,46.9,41.4,97,78,58,30.37,30.18,4,0,6,0.11
2013-4-28,57.3,52.7,48.2,53.4,49.3,43.5,97,89,71,30.18,29.94,3,0,6,0.35
2013-4-29,67.8,56.4,48.5,54.9,51.3,47.7,98,84,59,30.02,29.94,9,1,12,0.00
2013-4-30,75.8,61.2,45.2,58.7,52.5,44.7,100,76,38,30.13,29.97,6,0,7,0.00
2013-5-1,67.4,59.9,53.3,55.6,52.0,48.9,92,76,57,30.24,30.12,9,3,14,0.00
2013-5-2,67.4,58.2,53.5,56.9,51.8,49.2,88,80,63,30.27,30.18,7,3,13,0.00
2013-5-3,64.2,57.3,52.3,50.5,44.7,35.8,85,65,39,30.20,30.08,10,5,18,0.00
2013-5-4,58.3,51.8,44.9,47.2,41.3,35.6,80,68,45,30.09,29.98,11,6,17,0.00
2013-5-5,51.9,49.2,46.5,49.7,43.8,33.7,97,83,57,30.05,29.87,11,8,16,0.13
2013-5-6,62.9,54.2,50.4,57.7,51.5,48.7,98,91,78,29.89,29.81,11,4,13,0.25
2013-5-7,59.8,51.7,47.0,53.9,49.8,46.0,99,93,76,29.95,29.86,7,1,10,0.40
2013-5-8,62.6,54.9,49.6,57.5,53.4,49.1,100,95,78,30.03,29.90,10,2,13,0.15
2013-5-9,71.3,59.4,49.6,61.6,55.3,49.3,100,88,59,30.11,30.01,9,2,11,0.01
2013-5-10,74.6,60.8,47.0,61.5,56.0,46.7,100,86,57,30.08,29.92,11,2,11,0.03
2013-5-11,69.1,59.7,55.4,61.8,57.6,50.0,100,93,75,29.94,29.81,7,2,11,0.17
2013-5-12,58.1,50.7,44.1,50.2,37.2,29.2,94,62,35,30.09,29.88,9,2,13,0.02
2013-5-13,58.4,46.5,32.1,38.5,30.1,24.2,94,57,28,30.21,30.09,10,2,16,0.00
2013-5-14,69.3,51.6,31.3,51.2,40.8,29.5,96,70,43,30.27,30.03,10,2,15,0.00
2013-5-15,79.2,63.9,46.5,61.2,54.4,45.1,99,74,48,30.11,29.93,10,4,17,0.00
2013-5-16,74.2,62.7,50.5,60.2,55.1,49.6,98,78,53,30.02,29.94,10,3,14,0.00
2013-5-17,78.6,63.2,50.8,63.4,57.3,50.0,99,83,50,30.09,30.00,8,0,8,0.49
2013-5-18,69.6,63.1,56.0,64.5,60.7,55.7,100,92,77,30.09,30.01,3,0,6,0.00
2013-5-19,76.8,65.6,59.3,68.3,62.4,59.0,99,90,67,30.05,29.94,9,0,9,0.89
2013-5-20,75.6,64.2,58.0,67.7,61.9,58.0,100,93,71,30.11,29.99,7,1,9,0.49
2013-5-21,83.8,68.6,56.5,69.2,62.1,56.5,100,83,47,30.04,29.88,10,0,10,0.50
2013-5-22,81.2,64.8,55.9,66.8,61.3,55.9,100,90,53,29.94,29.84,12,1,13,0.81
2013-5-23,74.6,63.1,58.9,65.1,59.7,54.5,100,90,59,29.92,29.82,10,2,17,0.36
2013-5-24,60.2,54.5,47.6,54.8,44.5,36.2,96,71,44,30.24,29.90,8,4,14,0.02
2013-5-25,65.5,52.7,38.0,43.3,37.9,26.7,95,61,25,30.37,30.23,8,2,14,0.01
2013-5-26,68.9,58.2,49.9,50.4,46.7,42.4,91,68,44,30.27,30.18,7,1,11,0.00
2013-5-27,78.8,63.2,46.4,61.0,53.4,45.6,98,73,49,30.25,30.07,6,1,8,0.00
2013-5-28,81.1,67.9,52.9,63.0,58.4,52.3,99,74,47,30.17,30.05,8,1,10,0.00
2013-5-29,83.8,69.7,53.5,63.6,59.1,52.7,99,72,43,30.18,30.07,2,0,6,0.00
2013-5-30,84.9,69.5,53.2,65.3,58.5,52.5,99,71,44,30.21,30.07,2,0,4,0.00
2013-5-31,84.0,70.8,55.1,66.2,60.2,54.2,98,71,50,30.15,30.01,3,0,7,0.00
2013-6-1,84.5,71.7,59.6,66.6,61.6,57.8,96,73,48,30.06,29.91,6,1,12,0.00
2013-6-2,71.5,66.5,62.7,66.4,62.8,59.3,98,88,69,29.95,29.84,3,0,6,0.49
2013-6-3,75.8,67.1,61.6,66.5,61.5,57.5,100,84,55,29.98,29.84,5,0,9,0.20
2013-6-4,78.3,65.9,53.3,62.3,57.9,52.7,100,78,50,30.05,29.96,3,0,11,0.00
2013-6-5,81.1,67.7,55.1,66.9,60.5,54.5,99,80,54,30.07,29.90,1,0,4,0.00
2013-6-6,77.4,69.1,62.1,68.4,64.0,59.9,95,84,65,29.95,29.73,3,0,5,0.04
2013-6-7,72.3,66.9,61.3,66.6,63.5,57.4,99,89,65,29.82,29.65,5,0,12,0.10
2013-6-8,77.4,66.8,59.0,63.2,60.4,58.4,99,82,53,30.06,29.81,6,1,9,0.03
2013-6-9,82.6,68.6,57.2,67.5,62.1,56.4,99,82,48,30.12,29.98,3,0,7,0.11
2013-6-10,76.0,66.8,64.0,68.2,64.4,61.1,100,93,63,29.99,29.83,11,1,15,0.40
2013-6-11,77.6,67.9,61.3,65.6,62.7,60.6,99,85,61,29.98,29.86,7,1,9,0.29
2013-6-12,87.0,73.2,59.3,74.5,67.4,59.0,99,84,60,30.00,29.85,7,2,14,0.00
2013-6-13,79.9,71.3,62.1,71.7,66.7,55.2,99,86,74,29.85,29.63,11,3,18,0.30
2013-6-14,74.0,64.5,55.6,58.8,55.3,52.4,94,74,52,30.05,29.81,5,0,10,0.00
2013-6-15,78.5,63.6,49.8,61.1,56.2,49.5,100,80,50,30.15,30.03,5,0,9,0.01
2013-6-16,80.1,67.6,55.1,67.3,61.8,54.5,99,83,59,30.09,29.98,9,2,10,0.00
2013-6-17,81.1,70.9,62.6,69.6,66.0,61.7,98,85,62,30.00,29.88,6,1,8,0.05
2013-6-18,71.8,66.3,59.6,67.0,64.0,58.1,100,93,73,29.93,29.80,4,0,8,1.11
2013-6-19,77.4,66.1,57.0,67.9,61.9,56.2,100,88,61,30.09,29.92,2,0,6,0.25
2013-6-20,81.1,68.5,56.2,66.1,61.8,55.9,100,82,50,30.18,30.09,1,0,5,0.00
2013-6-21,84.0,70.7,58.1,68.1,61.9,57.8,100,77,44,30.22,30.11,2,0,5,0.00
2013-6-22,82.6,68.9,55.9,63.0,59.1,55.3,100,75,40,30.21,30.08,1,0,5,0.00
2013-6-23,84.5,71.3,57.8,67.0,62.1,57.2,99,76,44,30.18,30.07,5,0,6,0.00
2013-6-24,82.8,71.9,62.3,70.9,65.8,61.2,98,82,60,30.17,30.04,4,0,7,0.00
2013-6-25,81.8,70.4,62.3,70.3,66.1,62.0,100,87,65,30.12,29.97,7,1,17,0.00
2013-6-26,81.6,70.5,62.9,72.3,66.8,62.0,99,89,66,30.00,29.86,8,2,10,0.01
2013-6-27,76.7,67.8,63.7,71.3,66.3,62.8,100,95,82,29.89,29.73,8,2,11,0.36
2013-6-28,80.5,71.1,63.1,71.6,67.6,61.3,99,89,68,29.76,29.59,14,3,18,0.67
2013-6-29,79.4,70.3,61.3,68.7,63.4,58.7,99,81,51,29.68,29.59,7,2,10,0.00
2013-6-30,84.3,69.9,58.0,66.2,61.3,55.9,99,78,40,29.78,29.67,2,0,7,0.13
2013-7-1,82.6,69.8,62.9,69.9,65.3,62.6,99,87,54,29.91,29.75,6,0,8,0.21
2013-7-2,81.1,70.5,63.5,69.4,65.6,62.0,98,86,60,30.08,29.88,3,0,6,0.10
2013-7-3,72.0,66.3,62.0,70.6,65.6,62.0,100,98,92,30.18,30.05,3,0,6,1.31
2013-7-4,79.8,69.4,61.6,72.9,66.6,61.6,100,91,71,30.19,30.11,2,0,6,0.64
2013-7-5,84.0,73.2,64.2,70.3,66.1,63.3,98,80,56,30.17,30.09,5,0,9,0.03
2013-7-6,84.5,73.0,64.8,69.8,66.2,63.6,97,81,57,30.15,30.04,4,0,9,0.10
2013-7-7,78.3,69.8,66.1,72.2,68.1,65.4,100,94,74,30.13,30.05,11,0,11,0.16
2013-7-8,82.2,70.5,63.5,69.1,65.4,62.1,99,86,51,30.18,30.08,3,0,6,0.00
2013-7-9,85.3,73.8,63.9,70.8,67.2,62.7,99,82,54,30.14,30.02,4,0,4,0.00
2013-7-10,82.8,72.6,67.3,73.3,68.9,66.5,99,89,68,30.06,29.90,7,0,10,0.01
2013-7-11,77.0,70.5,66.1,70.9,68.5,65.8,100,94,77,29.93,29.84,3,0,6,0.32
2013-7-12,80.3,69.4,63.7,68.2,64.7,61.3,100,86,55,29.98,29.87,4,0,9,0.00
2013-7-13,80.9,70.3,62.0,68.4,64.0,60.2,96,81,62,30.10,29.97,3,1,8,0.00
2013-7-14,82.2,73.3,69.1,70.9,67.7,64.6,96,83,59,30.25,30.07,4,0,6,0.04
2013-7-15,86.3,73.6,63.7,68.7,65.9,63.0,99,79,51,30.30,30.21,2,0,7,0.00
2013-7-16,88.6,74.4,59.2,69.7,65.5,58.9,100,77,47,30.31,30.20,3,0,5,0.00
2013-7-17,87.2,74.1,65.6,73.4,68.9,65.0,99,85,55,30.26,30.11,5,1,8,0.14
2013-7-18,88.0,73.3,65.5,75.6,69.9,65.2,100,90,59,30.17,30.02,5,0,7,0.79
2013-7-19,84.3,73.4,66.8,75.1,70.2,66.8,100,91,72,30.08,29.94,6,1,9,0.07
2013-7-20,84.3,72.3,64.3,73.7,68.8,64.3,100,90,64,29.99,29.88,4,1,7,0.02
2013-7-21,79.4,70.6,64.0,73.2,68.2,63.7,100,92,78,29.97,29.90,5,0,8,0.18
2013-7-22,81.1,71.6,65.8,71.9,68.1,65.2,99,89,67,29.95,29.78,6,2,13,0.45
2013-7-23,82.4,72.7,67.3,69.9,67.9,65.4,100,86,60,29.83,29.74,7,2,10,0.28
2013-7-24,80.7,73.0,67.4,71.4,67.4,63.1,100,84,62,29.85,29.74,5,1,7,0.00
2013-7-25,79.0,69.0,58.6,63.9,60.2,56.3,99,76,52,30.03,29.84,4,0,6,0.00
2013-7-26,82.4,68.6,53.5,67.1,61.1,53.2,100,79,52,30.06,29.96,6,1,9,0.09
2013-7-27,77.2,68.1,64.8,69.2,66.0,63.6,100,93,72,30.00,29.85,3,0,5,0.17
2013-7-28,79.6,69.4,64.2,67.3,62.8,55.0,99,81,53,30.01,29.87,7,2,14,0.00
2013-7-29,77.4,64.5,51.3,60.3,55.6,50.8,100,76,46,30.20,30.01,4,0,6,0.00
2013-7-30,77.7,64.8,53.8,65.5,58.6,53.0,99,82,52,30.22,30.13,5,0,6,0.00
2013-7-31,67.6,64.3,62.1,66.1,63.4,61.5,100,97,93,30.16,29.96,1,0,3,0.70
2013-8-1,79.4,70.3,63.4,68.4,65.2,61.6,100,86,59,29.97,29.88,4,1,7,0.03
2013-8-2,78.8,67.9,59.6,66.1,61.7,57.6,100,83,49,30.03,29.93,4,0,6,0.00
2013-8-3,80.7,69.6,59.9,68.7,64.2,58.8,99,84,57,30.01,29.93,8,2,13,0.00
2013-8-4,79.4,70.8,62.0,68.0,62.7,57.0,99,78,48,30.03,29.93,6,1,11,0.20
2013-8-5,80.9,67.5,57.5,64.1,59.8,56.9,99,79,48,30.05,29.94,6,1,8,0.00
2013-8-6,81.1,69.9,59.5,67.9,63.8,57.9,97,83,57,30.00,29.92,4,0,11,0.00
2013-8-7,79.6,70.0,64.5,71.4,67.8,64.1,99,93,73,30.01,29.95,2,0,4,0.71
2013-8-8,79.8,72.2,65.8,73.3,69.1,65.5,100,91,74,30.00,29.94,3,0,7,0.00
2013-8-9,83.6,72.5,66.8,74.3,69.5,66.5,100,91,72,30.06,29.94,7,1,11,0.18
2013-8-10,75.6,70.1,66.3,73.4,69.4,66.0,100,98,87,30.09,30.02,5,0,7,1.02
2013-8-11,81.6,71.9,66.8,73.3,69.6,66.8,100,93,73,30.12,30.01,6,1,9,0.73
2013-8-12,80.3,71.6,64.5,73.4,69.4,64.2,100,93,75,30.06,29.93,6,1,7,0.84
2013-8-13,76.5,68.4,64.0,71.8,67.2,62.8,100,96,83,29.95,29.80,7,1,10,0.59
2013-8-14,72.5,63.2,53.5,62.5,56.0,51.3,99,79,49,30.09,29.89,2,0,7,0.00
2013-8-15,74.4,60.8,49.1,62.3,55.1,48.4,99,83,62,30.13,30.04,2,0,6,0.00
2013-8-16,76.8,63.4,51.1,62.6,56.7,50.8,100,81,51,30.13,30.05,2,0,7,0.00
2013-8-17,72.5,62.8,53.9,62.6,58.5,52.5,97,86,66,30.16,30.10,4,0,8,0.18
2013-8-18,76.8,67.0,60.5,67.7,63.7,60.0,100,90,70,30.18,30.09,4,0,7,0.22
2013-8-19,78.5,68.2,63.5,67.9,65.2,62.6,100,91,66,30.15,30.04,2,0,4,0.06
2013-8-20,84.1,70.4,60.7,70.8,65.8,60.1,100,87,56,30.15,30.07,2,0,4,0.00
2013-8-21,80.7,69.8,62.4,71.2,66.6,61.5,100,90,67,30.18,30.08,5,0,5,0.10
2013-8-22,81.1,69.6,60.2,71.2,65.4,59.9,100,88,63,30.15,30.01,6,1,11,0.00
2013-8-23,79.4,68.6,61.3,70.6,64.9,61.0,100,89,64,30.07,29.97,5,0,10,0.38
2013-8-24,77.6,67.1,57.6,63.3,59.2,55.3,97,78,50,30.28,30.07,5,1,9,0.01
2013-8-25,77.6,63.5,51.0,61.5,56.2,50.7,100,80,48,30.38,30.26,2,0,7,0.00
2013-8-26,80.3,64.8,51.1,68.0,60.2,50.8,100,86,58,30.32,30.12,4,0,6,0.00
2013-8-27,80.7,68.7,58.6,71.4,65.6,58.3,100,91,67,30.14,30.00,4,1,7,0.00
2013-8-28,83.2,72.2,63.9,72.8,68.4,63.6,100,89,63,30.03,29.90,7,1,11,0.02
2013-8-29,86.3,75.2,67.1,72.2,68.7,65.4,99,82,54,29.95,29.89,4,0,11,0.02
2013-8-30,84.5,72.7,62.0,71.1,66.8,61.5,100,83,57,29.99,29.87,5,0,8,0.00
2013-8-31,66.9,66.7,66.6,66.0,65.6,65.4,97,96,96,29.89,29.88,0,0,0,0.00
2013-9-2,78.3,71.7,65.2,70.6,66.7,63.3,95,85,74,29.85,29.79,4,1,8,0.00
2013-9-3,78.8,68.8,58.1,70.2,63.5,56.7,100,85,54,30.00,29.78,5,1,8,0.09
2013-9-4,79.4,63.9,53.1,63.7,57.5,52.9,100,83,47,30.13,29.99,3,0,7,0.01
2013-9-5,80.3,64.2,50.4,62.7,56.5,50.2,100,79,43,30.17,30.09,2,0,6,0.01
2013-9-6,80.3,69.8,56.0,65.4,60.4,55.4,98,74,50,30.16,30.06,3,0,0,0.00
2013-9-7,79.6,65.5,54.1,66.9,60.3,53.8,100,86,56,30.10,29.98,5,1,7,0.01
2013-9-8,80.7,67.0,57.0,69.7,62.5,56.7,100,87,57,30.01,29.94,2,0,3,0.00
2013-9-9,85.9,70.1,59.0,71.9,64.6,59.0,100,85,54,30.12,30.01,3,0,6,0.01
2013-9-10,85.9,71.6,60.9,70.2,65.5,60.7,100,83,52,30.21,30.10,2,0,5,0.00
2013-9-11,83.4,71.7,64.3,72.0,67.9,63.7,100,89,67,30.19,30.06,4,0,8,0.00
2013-9-12,80.3,69.3,63.1,72.3,66.5,63.1,100,92,72,30.06,29.84,5,1,9,0.41
2013-9-13,70.4,64.0,52.6,63.6,55.9,46.9,100,77,48,29.96,29.82,6,1,8,0.00
2013-9-14,72.3,55.8,42.6,51.5,46.5,41.3,99,76,34,30.12,29.96,1,0,6,0.00
2013-9-15,75.8,59.1,45.2,59.9,52.7,44.9,100,82,48,30.21,30.10,4,0,7,0.01
2013-9-16,71.1,60.7,52.3,64.3,57.0,52.0,100,88,70,30.22,30.12,5,1,10,0.00
2013-9-17,69.4,57.8,48.5,57.5,52.9,47.8,99,85,61,30.28,30.21,4,1,9,0.00
2013-9-18,68.8,58.8,49.4,60.9,55.6,48.6,99,90,67,30.25,30.15,2,0,5,0.00
2013-9-19,67.6,62.9,60.5,66.1,62.3,60.2,100,98,94,30.16,30.06,1,0,4,0.48
2013-9-20,78.6,66.9,59.5,68.8,63.8,59.5,100,91,65,30.07,29.88,4,0,7,0.01
2013-9-21,66.0,61.5,56.7,65.3,61.0,56.7,100,98,94,29.88,29.71,5,0,5,0.53
2013-9-22,70.4,57.3,46.1,57.6,52.4,46.1,100,86,56,29.95,29.78,4,0,7,0.01
2013-9-23,73.2,56.7,43.1,58.9,51.3,42.8,100,84,54,30.05,29.95,4,0,7,0.00
2013-9-24,76.1,58.1,46.0,61.4,53.3,45.7,100,87,46,30.08,29.91,2,0,5,0.01
2013-9-25,65.8,59.0,52.3,62.2,57.4,52.0,100,95,84,29.92,29.83,2,0,5,0.04
2013-9-26,73.7,61.3,51.0,59.2,54.5,47.7,100,82,43,30.04,29.88,4,0,8,0.00
2013-9-27,76.3,59.2,46.8,60.0,53.1,46.5,100,83,47,30.16,30.05,3,0,5,0.01
2013-9-28,71.6,57.0,44.9,58.5,51.8,44.6,100,85,56,30.24,30.13,3,0,5,0.00
2013-9-29,70.6,57.2,46.7,58.6,53.0,45.9,99,87,62,30.17,30.02,4,0,7,0.00
2013-9-30,71.1,60.0,51.3,59.6,56.1,51.0,100,88,61,30.08,29.99,3,0,5,0.00
2013-10-1,74.2,59.6,49.6,61.8,54.9,49.6,100,86,52,30.16,30.05,5,1,7,0.01
2013-10-2,78.6,60.1,48.3,64.8,55.6,48.3,100,87,52,30.20,30.08,3,0,5,0.00
2013-10-3,76.1,62.2,53.2,65.0,58.3,52.7,100,89,57,30.14,30.05,2,0,5,0.01
2013-10-4,79.4,63.6,53.3,66.4,58.9,53.0,100,87,56,30.18,30.07,3,0,7,0.00
2013-10-5,84.1,65.2,51.9,65.4,59.1,51.9,100,84,48,30.16,30.00,1,0,1,0.01
2013-10-6,81.2,66.5,53.2,65.1,58.7,53.2,100,79,48,30.02,29.82,4,1,10,0.01
2013-10-7,68.9,58.8,45.4,62.1,53.0,43.2,99,83,54,30.09,29.74,6,1,8,0.73
2013-10-8,66.0,52.1,38.8,51.8,44.7,38.0,99,78,56,30.23,30.07,7,2,11,0.01
2013-10-9,69.6,52.6,40.5,46.2,42.3,36.2,97,72,31,30.27,30.15,7,1,10,0.00
2013-10-10,66.3,50.5,36.3,55.2,46.0,35.0,99,86,64,30.18,30.07,3,0,5,0.00
2013-10-11,73.0,58.8,44.3,56.8,50.2,44.0,100,77,40,30.08,29.97,6,1,10,0.00
2013-10-12,67.8,61.2,56.5,60.3,57.8,55.4,97,89,75,30.09,29.98,2,0,6,0.00
2013-10-13,71.1,61.2,55.4,63.5,59.2,54.3,100,93,74,30.21,30.09,4,0,6,0.02
2013-10-14,70.8,61.2,53.2,60.1,56.8,51.9,99,86,67,30.24,30.13,4,1,7,0.00
2013-10-15,70.9,57.5,46.4,57.5,51.9,46.1,100,84,56,30.17,30.03,3,0,9,0.00
2013-10-16,66.0,56.8,46.5,57.1,53.2,45.7,99,88,72,30.06,29.96,4,1,7,0.00
2013-10-17,62.7,57.8,51.0,62.3,57.0,47.9,100,97,89,29.97,29.81,6,1,9,0.14
2013-10-18,62.3,49.5,35.9,47.8,43.9,35.4,100,83,54,30.08,29.96,2,0,4,0.00
2013-10-19,59.6,51.3,45.4,52.1,47.4,40.9,99,87,66,30.00,29.86,10,2,18,0.00
2013-10-20,61.3,44.0,29.8,40.8,35.3,28.5,98,75,31,30.13,30.00,2,0,4,0.00
2013-10-21,64.3,45.7,32.1,47.8,38.6,31.3,99,80,44,30.17,30.02,9,1,14,0.01
2013-10-22,59.0,49.9,40.9,51.2,45.7,39.0,98,86,67,30.04,29.83,9,2,11,0.02
2013-10-23,49.6,43.9,35.6,48.0,39.3,30.1,99,84,63,30.06,29.75,15,5,22,0.09
2013-10-24,45.8,37.5,29.4,34.8,32.2,28.1,97,82,61,30.24,30.06,10,2,15,0.00
2013-10-25,39.1,34.4,25.4,33.5,28.2,21.8,92,78,62,30.45,30.24,5,1,11,0.00
2013-10-26,52.0,36.2,18.1,32.5,25.1,16.2,97,68,38,30.41,30.15,11,2,18,0.00
2013-10-27,61.2,47.8,32.4,42.7,37.0,28.4,92,68,47,30.17,30.07,9,2,14,0.00
2013-10-28,58.7,51.7,43.2,54.6,49.8,40.8,98,93,84,30.27,30.15,2,0,4,0.04
2013-10-29,65.8,56.1,51.6,55.3,51.8,49.7,100,87,60,30.34,30.23,4,0,6,0.01
2013-10-30,67.4,57.5,51.6,58.1,54.3,49.7,100,89,69,30.26,30.15,8,1,13,0.31
2013-10-31,66.8,59.5,50.8,57.9,53.0,50.3,100,81,59,30.14,29.68,8,1,14,0.00
2013-11-1,68.1,60.7,46.2,60.3,52.9,42.6,98,77,46,29.75,29.61,13,3,15,0.21
2013-11-2,57.2,47.9,39.3,46.1,39.0,31.7,97,74,44,30.05,29.73,9,2,13,0.01
2013-11-3,51.1,41.2,30.7,37.0,33.2,27.8,91,74,50,30.41,30.05,3,0,5,0.00
2013-11-4,54.2,40.2,26.6,34.5,29.9,24.9,95,70,41,30.54,30.41,4,0,7,0.00
2013-11-5,62.0,45.0,35.9,37.0,31.6,23.9,93,62,24,30.54,30.41,5,1,7,0.00
2013-11-6,69.3,50.8,37.3,52.8,44.3,35.5,100,81,50,30.41,30.10,6,1,8,0.00
2013-11-7,53.8,46.1,36.8,53.8,41.1,27.9,100,83,61,30.22,30.00,8,2,13,0.25
2013-11-8,46.4,35.1,25.1,28.2,24.4,19.2,87,67,36,30.39,30.22,7,2,12,0.00
2013-11-9,52.5,35.8,22.2,31.5,25.3,19.9,92,69,35,30.39,30.27,10,2,17,0.00
2013-11-10,59.2,43.4,31.6,39.7,28.8,20.9,86,60,25,30.33,30.21,12,3,15,0.00
2013-11-11,62.3,38.8,21.8,30.7,23.6,17.6,91,61,18,30.36,30.18,6,0,9,0.00
2013-11-12,46.5,33.5,25.0,38.0,24.8,15.6,83,70,54,30.56,30.13,6,2,13,0.02
2013-11-13,37.8,26.6,16.4,20.4,15.8,11.0,84,65,41,30.67,30.55,5,1,9,0.00
2013-11-14,52.9,29.7,13.8,26.8,17.1,10.9,92,65,24,30.58,30.38,6,1,9,0.00
2013-11-15,54.2,37.2,20.0,44.3,29.6,15.1,99,77,35,30.40,30.25,6,0,8,0.16
2013-11-16,64.3,48.2,39.1,54.2,45.9,38.8,100,93,61,30.27,30.15,7,1,10,0.00
2013-11-17,66.9,53.8,40.5,57.4,50.4,39.8,100,90,63,30.17,29.82,5,1,9,0.18
2013-11-18,59.0,52.9,41.9,58.7,39.9,25.3,99,64,30,30.08,29.82,12,4,18,0.17
2013-11-19,48.5,38.7,27.0,27.6,24.8,21.0,80,58,36,30.30,30.08,5,0,11,0.00
2013-11-20,50.5,38.5,31.6,28.6,25.4,22.7,77,60,36,30.44,30.28,8,2,10,0.00
2013-11-21,62.4,45.9,28.7,49.9,38.8,24.7,91,77,56,30.50,30.35,5,1,7,0.00
2013-11-22,59.5,52.7,47.3,54.6,51.0,45.9,100,94,81,30.36,30.14,5,1,6,0.11
2013-11-23,51.4,41.2,27.8,50.0,34.0,14.9,95,77,50,30.33,30.14,8,3,15,0.00
2013-11-24,28.1,22.0,15.2,14.6,6.9,-1.0,73,53,31,30.59,30.33,7,2,13,0.00
2013-11-25,38.2,27.9,14.8,26.4,11.9,7.1,91,53,29,30.59,30.32,7,1,9,0.00
2013-11-26,43.5,37.5,28.7,43.2,36.9,26.7,100,98,92,30.32,29.72,6,2,9,1.89
2013-11-27,36.8,27.1,20.8,35.5,22.7,11.2,95,84,66,30.31,29.74,11,3,21,0.05
2013-11-28,36.0,23.0,13.3,20.0,14.9,9.3,88,72,49,30.58,30.31,6,1,10,0.04
2013-11-29,44.1,26.6,14.6,27.2,20.0,12.2,93,78,48,30.69,30.57,2,0,4,0.00
2013-11-30,45.2,30.5,22.1,28.9,23.0,18.3,90,75,49,30.64,30.39,7,1,8,0.00
2013-12-1,51.0,34.0,18.0,34.1,25.8,15.6,94,74,46,30.39,30.08,6,1,11,0.01
2013-12-2,47.4,41.0,36.0,38.7,34.9,30.4,91,79,66,30.08,29.84,2,0,4,0.00
2013-12-3,57.5,44.9,36.5,45.7,40.2,34.2,95,84,63,29.94,29.86,2,0,4,0.00
2013-12-4,67.3,48.5,36.2,52.1,44.1,35.5,100,87,55,30.05,29.93,4,0,6,0.00
2013-12-5,67.3,53.7,41.1,59.1,50.4,40.5,100,90,67,30.07,29.95,4,0,5,0.05
2013-12-6,58.0,52.0,40.9,57.2,51.5,40.4,100,98,93,30.10,29.86,6,0,6,0.70
2013-12-7,41.5,35.3,31.2,41.2,32.7,28.6,99,90,82,30.46,30.09,4,1,7,0.02
2013-12-8,36.9,35.1,32.8,35.0,33.0,30.0,98,92,86,30.42,30.15,8,5,12,0.40
2013-12-9,45.8,40.6,35.6,45.8,40.3,35.1,100,99,97,30.19,30.05,5,1,12,0.18
2013-12-10,41.1,33.6,21.8,41.1,30.4,17.8,100,89,67,30.37,29.98,10,2,14,0.23
2013-12-11,42.9,27.9,14.4,25.2,19.0,12.3,95,72,39,30.52,30.37,8,2,12,0.00
2013-12-12,34.0,26.8,19.5,19.8,15.2,8.3,75,62,34,30.50,30.42,8,2,13,0.00
2013-12-13,44.1,27.9,13.8,24.5,17.1,10.1,88,67,32,30.46,30.29,6,1,7,0.00
2013-12-14,39.8,36.8,32.9,37.5,31.6,22.4,98,82,59,30.31,29.80,8,2,10,0.47
2013-12-15,40.6,33.5,29.1,40.0,30.0,25.0,99,87,76,30.17,29.77,10,6,14,0.04
2013-12-16,43.9,31.5,24.8,31.7,26.8,22.3,93,83,61,30.26,30.13,9,4,15,0.00
2013-12-17,49.4,38.0,24.4,36.1,30.2,20.0,96,75,55,30.20,29.95,13,6,22,0.15
2013-12-18,39.5,29.7,21.0,22.8,19.7,17.0,87,67,48,30.35,30.18,11,4,16,0.00
2013-12-19,54.4,33.0,18.8,30.5,23.7,16.0,91,72,34,30.40,30.22,2,0,5,0.00
2013-12-20,60.9,39.8,27.8,37.7,31.1,25.0,90,73,39,30.25,30.12,4,0,5,0.00
2013-12-21,69.9,55.3,38.5,58.0,48.0,35.0,90,77,61,30.13,29.85,6,1,9,0.00
2013-12-22,68.1,56.4,49.5,57.7,53.5,49.3,100,91,67,30.04,29.83,17,1,21,1.18
2013-12-23,52.2,42.3,30.7,52.2,40.6,26.4,100,94,84,30.29,29.96,7,2,8,0.35
2013-12-24,30.6,26.0,14.8,26.3,18.2,9.2,84,72,56,30.52,30.28,9,2,12,0.00
2013-12-25,40.1,22.8,11.7,17.4,12.2,8.1,86,68,31,30.55,30.39,8,1,11,0.00
2013-12-26,42.1,27.8,18.0,26.5,19.5,14.4,88,73,48,30.46,30.37,11,2,15,0.00
2013-12-27,47.0,27.6,16.9,23.7,17.9,13.8,90,70,34,30.54,30.44,6,1,8,0.00
2013-12-28,44.1,30.7,17.5,36.9,24.9,15.0,96,80,54,30.49,30.16,2,0,4,0.35
2013-12-29,43.6,41.3,38.6,43.3,40.4,36.9,99,97,92,30.16,29.83,12,4,17,1.11
2013-12-30,38.9,35.5,32.2,38.1,33.5,29.6,98,92,87,30.21,30.00,7,2,10,0.02
2013-12-31,37.8,30.4,20.6,30.3,24.7,17.1,93,80,60,30.43,30.20,13,5,17,0.00
2014-1-1,51.1,28.8,18.0,28.5,20.2,16.1,94,74,28,30.42,30.17,5,0,6,0.00
2014-1-2,39.3,30.0,16.5,37.9,27.1,11.5,97,89,68,30.17,29.72,15,3,20,0.13